Time;durP1;ratioP1;P1;durP2;ratioP2;P2;SDS_P1;SDS_P2;PMS_P1;PMS_P2;Temp;Humidity;BMP_temperature;BMP_pressure;BME280_temperature;BME280_humidity;BME280_pressure;Samples;Min_cycle;Max_cycle;Signal;HPM_P1;HPM_P2
2022/09/26 00:00:40;;;;;;;18.63;17.10;;;11.70;99.90;;;;;;4924580;29;20226;-79
2022/09/26 00:03:08;;;;;;;20.70;18.90;;;11.70;99.90;;;;;;4926233;29;20206;-79
2022/09/26 00:05:36;;;;;;;20.50;18.80;;;11.60;99.90;;;;;;4927091;29;20579;-79
2022/09/26 00:08:05;;;;;;;19.83;18.00;;;11.60;99.90;;;;;;4926916;29;20225;-79
2022/09/26 00:10:32;;;;;;;19.57;17.97;;;11.50;99.90;;;;;;4920553;29;20792;-79
2022/09/26 00:12:59;;;;;;;17.60;16.20;;;11.50;99.90;;;;;;4921188;29;20202;-79
2022/09/26 00:15:26;;;;;;;17.67;16.20;;;11.40;99.90;;;;;;4910685;29;20740;-79
2022/09/26 00:17:53;;;;;;;18.00;16.50;;;11.30;99.90;;;;;;4923246;29;20684;-79
2022/09/26 00:20:20;;;;;;;18.20;16.60;;;11.30;99.90;;;;;;4908932;29;20221;-79
2022/09/26 00:22:47;;;;;;;16.80;15.50;;;11.20;99.90;;;;;;4907459;29;20194;-78
2022/09/26 00:25:15;;;;;;;16.47;15.17;;;11.20;99.90;;;;;;4925035;29;20205;-79
2022/09/26 00:27:42;;;;;;;17.07;15.67;;;11.20;99.90;;;;;;4922362;29;20245;-78
2022/09/26 00:30:10;;;;;;;17.00;15.57;;;11.10;99.90;;;;;;4926229;29;20713;-79
2022/09/26 00:32:37;;;;;;;16.50;15.20;;;11.10;99.90;;;;;;4910969;29;20214;-79
2022/09/26 00:35:04;;;;;;;18.50;16.97;;;11.00;99.90;;;;;;4907744;29;20224;-79
2022/09/26 00:37:31;;;;;;;17.47;16.07;;;10.90;99.90;;;;;;4925585;29;20542;-79
2022/09/26 00:39:58;;;;;;;18.27;16.77;;;10.80;99.90;;;;;;4907632;29;20288;-79
2022/09/26 00:42:26;;;;;;;18.97;17.37;;;10.80;99.90;;;;;;4908496;29;20243;-78
2022/09/26 00:44:54;;;;;;;17.57;16.27;;;10.80;99.90;;;;;;4923348;29;20203;-79
2022/09/26 00:47:32;;;;;;;18.30;16.90;;;10.70;99.90;;;;;;4923889;29;20604;-79
2022/09/26 00:50:02;;;;;;;17.60;16.30;;;10.60;99.90;;;;;;4910022;29;20308;-78
2022/09/26 00:52:34;;;;;;;19.63;17.93;;;10.60;99.90;;;;;;4897131;29;20700;-78
2022/09/26 00:55:03;;;;;;;20.40;18.80;;;10.60;99.90;;;;;;4920466;29;20256;-79
2022/09/26 00:57:37;;;;;;;20.57;18.87;;;10.70;99.90;;;;;;4917419;29;20236;-79
2022/09/26 01:00:08;;;;;;;19.63;17.93;;;10.70;99.90;;;;;;4910294;29;20278;-79
2022/09/26 01:02:35;;;;;;;20.23;18.63;;;10.70;99.90;;;;;;4909558;29;20204;-79
2022/09/26 01:05:05;;;;;;;19.30;17.70;;;10.80;99.90;;;;;;4907303;29;20302;-79
2022/09/26 01:07:33;;;;;;;20.50;18.60;;;10.70;99.90;;;;;;4927254;29;20219;-79
2022/09/26 01:10:02;;;;;;;19.83;18.10;;;10.80;99.90;;;;;;4905811;29;20705;-79
2022/09/26 01:12:29;;;;;;;19.87;18.30;;;10.80;99.90;;;;;;4913081;29;20257;-79
2022/09/26 01:14:58;;;;;;;19.87;18.07;;;10.80;99.90;;;;;;4907097;29;20196;-79
2022/09/26 01:17:26;;;;;;;18.93;17.43;;;10.90;99.90;;;;;;4908800;29;20224;-79
2022/09/26 01:20:07;;;;;;;20.57;18.87;;;11.00;99.90;;;;;;4906749;29;20714;-79
2022/09/26 01:23:08;;;;;;;18.60;17.10;;;11.00;99.90;;;;;;4900778;29;20207;-79
2022/09/26 01:25:55;;;;;;;18.63;17.17;;;11.00;99.90;;;;;;4924138;29;20208;-79
2022/09/26 01:28:35;;;;;;;18.10;16.70;;;10.90;99.90;;;;;;4914249;29;20231;-79
2022/09/26 01:31:13;;;;;;;19.83;18.07;;;10.90;99.90;;;;;;4913352;29;20230;-79
2022/09/26 01:33:52;;;;;;;18.63;17.23;;;10.80;99.90;;;;;;4909916;29;20194;-79
2022/09/26 01:36:30;;;;;;;18.57;16.87;;;10.80;99.90;;;;;;4906733;29;20212;-79
2022/09/26 01:39:17;;;;;;;18.83;17.33;;;10.70;99.90;;;;;;4913873;29;20208;-79
2022/09/26 01:41:55;;;;;;;19.67;18.13;;;10.60;99.90;;;;;;4922153;29;20222;-78
2022/09/26 01:44:31;;;;;;;19.73;18.13;;;10.50;99.90;;;;;;4908767;29;20673;-79
2022/09/26 01:47:08;;;;;;;21.00;19.10;;;10.50;99.90;;;;;;4924641;29;20267;-78
2022/09/26 01:49:44;;;;;;;21.53;19.63;;;10.50;99.90;;;;;;4910852;29;20220;-78
2022/09/26 01:52:19;;;;;;;23.17;20.97;;;10.50;99.90;;;;;;4911181;29;20855;-79
2022/09/26 01:54:53;;;;;;;21.87;20.00;;;10.60;99.90;;;;;;4910372;29;20284;-79
2022/09/26 01:57:25;;;;;;;20.40;18.60;;;10.60;99.90;;;;;;4912797;29;20192;-79
2022/09/26 01:59:56;;;;;;;21.13;19.17;;;10.60;99.90;;;;;;4911128;29;20223;-79
2022/09/26 02:02:29;;;;;;;21.23;19.47;;;10.70;99.90;;;;;;4912984;29;20200;-79
2022/09/26 02:05:00;;;;;;;19.77;18.13;;;10.80;99.90;;;;;;4910217;29;20208;-79
2022/09/26 02:07:35;;;;;;;21.70;19.80;;;10.80;99.90;;;;;;4910302;29;20256;-79
2022/09/26 02:10:09;;;;;;;19.70;18.10;;;10.80;99.90;;;;;;4913495;29;20218;-79
2022/09/26 02:12:40;;;;;;;20.63;18.80;;;10.80;99.90;;;;;;4909292;29;20575;-78
2022/09/26 02:15:10;;;;;;;21.13;19.33;;;10.90;99.90;;;;;;4924125;29;20201;-79
2022/09/26 02:17:42;;;;;;;20.10;18.37;;;10.90;99.90;;;;;;4909847;29;20200;-79
2022/09/26 02:20:13;;;;;;;19.87;18.27;;;10.90;99.90;;;;;;4910030;29;20220;-79
2022/09/26 02:22:44;;;;;;;21.40;19.40;;;10.90;99.90;;;;;;4910269;29;20201;-79
2022/09/26 02:25:15;;;;;;;21.40;19.60;;;10.90;99.90;;;;;;4911347;29;20202;-79
2022/09/26 02:27:42;;;;;;;19.77;18.17;;;10.90;99.90;;;;;;4927122;29;20276;-79
2022/09/26 02:30:11;;;;;;;19.30;17.73;;;10.90;99.90;;;;;;4910935;29;20233;-79
2022/09/26 02:32:39;;;;;;;20.40;18.50;;;10.90;99.90;;;;;;4906842;29;20391;-78
2022/09/26 02:37:54;;;;;;;22.23;20.23;;;11.00;99.90;;;;;;4909291;29;20699;-79
2022/09/26 02:40:27;;;;;;;19.57;17.97;;;11.00;99.90;;;;;;4911305;29;20223;-79
2022/09/26 02:43:03;;;;;;;19.00;17.50;;;11.00;99.90;;;;;;4909990;29;20243;-80
2022/09/26 02:45:40;;;;;;;18.67;17.17;;;11.00;99.90;;;;;;4909531;29;20730;-79
2022/09/26 02:48:47;;;;;;;21.37;19.47;;;11.00;99.90;;;;;;4926810;29;20264;-78
2022/09/26 02:51:30;;;;;;;20.30;18.50;;;11.00;99.90;;;;;;4909238;29;20227;-78
2022/09/26 02:54:15;;;;;;;19.53;17.93;;;11.00;99.90;;;;;;4905987;29;20272;-78
2022/09/26 02:57:05;;;;;;;21.20;19.40;;;11.00;99.90;;;;;;4910293;29;20207;-79
2022/09/26 02:59:44;;;;;;;21.73;19.83;;;11.00;99.90;;;;;;4909455;29;20224;-82
2022/09/26 03:02:15;;;;;;;20.63;18.77;;;11.00;99.90;;;;;;4901813;29;20224;-82
2022/09/26 03:04:51;;;;;;;19.20;17.80;;;10.90;99.90;;;;;;4907703;29;20210;-82
2022/09/26 03:07:25;;;;;;;20.73;19.07;;;11.00;99.90;;;;;;4898008;29;20769;-83
2022/09/26 03:09:55;;;;;;;21.80;20.00;;;10.90;99.90;;;;;;4896216;29;20236;-82
2022/09/26 03:12:25;;;;;;;21.93;20.23;;;10.90;99.90;;;;;;4912041;29;20200;-82
2022/09/26 03:14:53;;;;;;;22.87;20.97;;;10.90;99.90;;;;;;4914880;29;20273;-82
2022/09/26 03:17:21;;;;;;;22.07;20.17;;;10.90;99.90;;;;;;4901187;29;20724;-81
2022/09/26 03:19:54;;;;;;;22.60;20.63;;;10.90;99.90;;;;;;4912468;29;20224;-80
2022/09/26 03:22:21;;;;;;;21.30;19.60;;;10.90;99.90;;;;;;4912304;29;20236;-80
2022/09/26 03:24:49;;;;;;;19.53;18.03;;;10.90;99.90;;;;;;4908713;29;20215;-81
2022/09/26 03:27:17;;;;;;;20.90;19.10;;;10.90;99.90;;;;;;4913102;29;20239;-80
2022/09/26 03:29:46;;;;;;;22.00;20.30;;;10.90;99.90;;;;;;4910966;29;20271;-82
2022/09/26 03:32:19;;;;;;;21.93;20.10;;;10.90;99.90;;;;;;4921072;29;20201;-82
2022/09/26 03:34:46;;;;;;;20.50;19.00;;;10.90;99.90;;;;;;4906893;29;20212;-81
2022/09/26 03:37:15;;;;;;;20.93;19.23;;;10.90;99.90;;;;;;4910282;29;20576;-80
2022/09/26 03:39:43;;;;;;;20.20;18.60;;;10.90;99.90;;;;;;4925255;29;20226;-79
2022/09/26 03:42:32;;;;;;;21.57;19.60;;;10.90;99.90;;;;;;4918294;29;20681;-79
2022/09/26 03:44:59;;;;;;;20.97;19.30;;;10.90;99.90;;;;;;4908045;29;20692;-79
2022/09/26 03:47:29;;;;;;;21.90;20.10;;;10.90;99.90;;;;;;4924068;29;20225;-77
2022/09/26 03:49:57;;;;;;;21.27;19.57;;;10.90;99.90;;;;;;4908424;29;20315;-79
2022/09/26 03:52:26;;;;;;;20.70;19.10;;;10.90;99.90;;;;;;4911415;29;20195;-79
2022/09/26 03:54:54;;;;;;;12.53;10.77;;;10.90;99.90;;;;;;4927335;29;20200;-79
2022/09/26 03:57:21;;;;;;;11.83;10.63;;;10.90;99.90;;;;;;4923587;29;20637;-79
2022/09/26 03:59:54;;;;;;;11.90;10.70;;;10.80;99.90;;;;;;4907566;29;20221;-79
2022/09/26 04:02:21;;;;;;;11.13;10.03;;;10.90;99.90;;;;;;4913774;29;20247;-80
2022/09/26 04:04:57;;;;;;;11.77;10.53;;;10.90;99.90;;;;;;4890437;29;20204;-79
2022/09/26 04:07:26;;;;;;;10.00;9.00;;;10.90;99.90;;;;;;4902546;29;20238;-79
2022/09/26 04:09:53;;;;;;;10.80;9.70;;;10.90;99.90;;;;;;4898776;29;20217;-80
2022/09/26 04:12:20;;;;;;;10.20;9.10;;;10.90;99.90;;;;;;4893366;29;20204;-80
2022/09/26 04:14:47;;;;;;;9.50;8.57;;;10.90;99.90;;;;;;4921329;29;20226;-81
2022/09/26 04:17:14;;;;;;;9.50;8.50;;;10.90;99.90;;;;;;4906627;29;20236;-80
2022/09/26 04:19:45;;;;;;;8.10;7.33;;;11.00;99.90;;;;;;4925060;29;20624;-80
2022/09/26 04:22:12;;;;;;;8.40;7.53;;;11.00;99.90;;;;;;4909241;29;20204;-81
2022/09/26 04:24:41;;;;;;;8.97;8.07;;;10.90;99.90;;;;;;4921612;29;20202;-81
2022/09/26 04:27:08;;;;;;;8.47;7.53;;;10.90;99.90;;;;;;4925980;29;20275;-80
2022/09/26 04:29:36;;;;;;;8.40;7.60;;;10.90;99.90;;;;;;4908843;29;20231;-81
2022/09/26 04:32:27;;;;;;;8.20;7.40;;;10.90;99.90;;;;;;4896145;29;20431;-82
2022/09/26 04:35:24;;;;;;;9.80;8.87;;;10.90;99.90;;;;;;4925987;29;20207;-81
2022/09/26 04:37:51;;;;;;;11.50;10.53;;;10.80;99.90;;;;;;4911092;29;20283;-80
2022/09/26 04:40:19;;;;;;;13.13;11.93;;;10.80;99.90;;;;;;4913394;29;20225;-81
2022/09/26 04:43:01;;;;;;;10.23;9.33;;;10.80;99.90;;;;;;4920714;29;20216;-80
2022/09/26 04:45:28;;;;;;;11.77;10.67;;;10.80;99.90;;;;;;4900067;29;20217;-80
2022/09/26 04:47:55;;;;;;;11.70;10.70;;;10.80;99.90;;;;;;4907595;29;20263;-81
2022/09/26 04:50:41;;;;;;;9.43;8.63;;;10.80;99.90;;;;;;4918417;29;20249;-81
2022/09/26 04:53:11;;;;;;;9.10;8.30;;;10.80;99.90;;;;;;4908732;29;20285;-81
2022/09/26 04:55:59;;;;;;;8.77;7.97;;;10.80;99.90;;;;;;4920448;29;20201;-81
2022/09/26 04:58:27;;;;;;;9.60;8.80;;;10.80;99.90;;;;;;4927013;29;20279;-80
2022/09/26 05:00:54;;;;;;;10.30;9.23;;;10.80;99.90;;;;;;4908323;29;20306;-80
2022/09/26 05:03:35;;;;;;;10.07;9.27;;;10.80;99.90;;;;;;4913224;29;20210;-81
2022/09/26 05:06:04;;;;;;;8.90;8.10;;;10.80;99.90;;;;;;4926189;29;20680;-80
2022/09/26 05:08:31;;;;;;;10.03;9.03;;;10.80;99.90;;;;;;4904539;29;20218;-80
2022/09/26 05:11:00;;;;;;;10.70;9.70;;;10.80;99.90;;;;;;4920454;29;20229;-80
2022/09/26 05:13:27;;;;;;;10.17;9.17;;;10.80;99.90;;;;;;4926024;29;20620;-80
2022/09/26 05:15:54;;;;;;;8.67;7.87;;;10.80;99.90;;;;;;4907226;29;20565;-81
2022/09/26 05:18:24;;;;;;;9.30;8.37;;;10.80;99.90;;;;;;4907729;29;20332;-80
2022/09/26 05:20:52;;;;;;;9.10;8.30;;;10.80;99.90;;;;;;4911441;29;20221;-81
2022/09/26 05:26:22;;;;;;;10.30;9.50;;;10.80;99.90;;;;;;4901597;29;20196;-80
2022/09/26 05:28:52;;;;;;;8.80;8.03;;;10.80;99.90;;;;;;4926192;29;20246;-80
2022/09/26 05:31:27;;;;;;;12.33;11.33;;;10.80;99.90;;;;;;4903726;29;20207;-80
2022/09/26 05:33:56;;;;;;;12.27;11.37;;;10.90;99.90;;;;;;4926662;29;20195;-80
2022/09/26 05:36:23;;;;;;;12.27;11.37;;;10.90;99.90;;;;;;4921760;29;20290;-81
2022/09/26 05:38:51;;;;;;;12.40;11.50;;;10.90;99.90;;;;;;4921982;29;20685;-80
2022/09/26 05:41:20;;;;;;;12.27;11.33;;;10.90;99.90;;;;;;4907950;29;20227;-80
2022/09/26 05:43:47;;;;;;;12.20;11.20;;;10.90;99.90;;;;;;4907144;29;20196;-81
2022/09/26 05:46:15;;;;;;;12.27;11.33;;;10.90;99.90;;;;;;4909607;29;20200;-80
2022/09/26 05:48:47;;;;;;;12.13;11.23;;;10.90;99.90;;;;;;4910753;29;20224;-81
2022/09/26 05:51:20;;;;;;;12.87;11.97;;;10.90;99.90;;;;;;4923179;29;20224;-80
2022/09/26 05:53:49;;;;;;;12.73;11.73;;;10.90;99.90;;;;;;4909768;29;20199;-81
2022/09/26 05:56:22;;;;;;;12.00;11.10;;;10.90;99.90;;;;;;4906035;29;20215;-81
2022/09/26 05:59:07;;;;;;;11.83;10.93;;;11.00;99.90;;;;;;4921943;29;20220;-80
2022/09/26 06:01:53;;;;;;;11.50;10.70;;;11.00;99.90;;;;;;4922677;29;20342;-81
2022/09/26 06:04:40;;;;;;;11.20;10.40;;;11.00;99.90;;;;;;4917384;29;20212;-80
2022/09/26 06:07:25;;;;;;;10.80;10.00;;;11.00;99.90;;;;;;4911559;29;20745;-81
2022/09/26 06:09:52;;;;;;;10.77;9.67;;;11.10;99.90;;;;;;4909636;29;20229;-81
2022/09/26 06:12:36;;;;;;;12.23;11.13;;;11.10;99.90;;;;;;4913519;29;20632;-80
2022/09/26 06:15:04;;;;;;;11.33;10.37;;;11.10;99.90;;;;;;4910930;29;20207;-80
2022/09/26 06:17:31;;;;;;;11.20;10.30;;;11.20;99.90;;;;;;4912670;29;20585;-80
2022/09/26 06:19:58;;;;;;;10.07;9.37;;;11.10;99.90;;;;;;4912322;29;20570;-80
2022/09/26 06:22:25;;;;;;;10.00;9.30;;;11.20;99.90;;;;;;4914292;29;20248;-80
2022/09/26 06:24:53;;;;;;;10.73;9.80;;;11.20;99.90;;;;;;4923222;29;20208;-80
2022/09/26 06:27:21;;;;;;;10.90;10.10;;;11.30;99.90;;;;;;4909137;29;20705;-81
2022/09/26 06:29:49;;;;;;;11.10;10.27;;;11.30;99.90;;;;;;4926552;29;20223;-80
2022/09/26 06:32:16;;;;;;;10.13;9.17;;;11.40;99.90;;;;;;4915255;29;20230;-80
2022/09/26 06:35:12;;;;;;;12.60;11.70;;;11.30;99.90;;;;;;4927461;29;20225;-81
2022/09/26 06:37:59;;;;;;;12.73;11.93;;;11.40;99.90;;;;;;4917345;29;20741;-81
2022/09/26 06:40:27;;;;;;;5.80;4.93;;;11.40;99.90;;;;;;4915512;29;20250;-78
2022/09/26 06:42:55;;;;;;;4.67;4.27;;;11.50;99.90;;;;;;4929500;29;20205;-80
2022/09/26 06:45:29;;;;;;;5.20;4.70;;;11.50;99.90;;;;;;4914355;29;20206;-81
2022/09/26 06:48:14;;;;;;;14.27;13.37;;;11.60;99.90;;;;;;4928662;29;20223;-80
2022/09/26 06:50:59;;;;;;;14.17;13.00;;;11.70;99.90;;;;;;4930467;29;20640;-80
2022/09/26 06:53:27;;;;;;;13.90;13.00;;;11.70;99.90;;;;;;4916263;29;20251;-80
2022/09/26 06:55:57;;;;;;;13.43;12.63;;;11.80;99.90;;;;;;4907203;29;20209;-80
2022/09/26 06:58:25;;;;;;;14.20;13.20;;;11.80;99.90;;;;;;4910419;29;20203;-80
2022/09/26 07:01:00;;;;;;;15.60;14.60;;;12.00;99.90;;;;;;4909867;29;20249;-80
2022/09/26 07:03:59;;;;;;;5.97;4.73;;;12.20;99.90;;;;;;4904565;29;20232;-80
2022/09/26 07:06:35;;;;;;;4.73;4.20;;;12.30;99.90;;;;;;4909793;29;20197;-81
2022/09/26 07:09:03;;;;;;;11.00;10.20;;;12.30;99.90;;;;;;4909780;29;20224;-80
2022/09/26 07:11:49;;;;;;;13.90;13.10;;;12.40;99.90;;;;;;4922455;29;20277;-81
2022/09/26 07:14:16;;;;;;;12.60;11.77;;;12.40;99.90;;;;;;4913006;29;20239;-81
2022/09/26 07:16:50;;;;;;;12.63;11.63;;;12.40;99.90;;;;;;4927445;29;20555;-80
2022/09/26 07:19:27;;;;;;;12.20;11.23;;;12.40;99.90;;;;;;4905327;29;20219;-80
2022/09/26 07:22:15;;;;;;;13.57;12.50;;;12.40;99.90;;;;;;4918746;29;20213;-80
2022/09/26 07:24:49;;;;;;;13.80;12.90;;;12.50;99.90;;;;;;4923751;29;20199;-80
2022/09/26 07:27:16;;;;;;;12.83;11.93;;;12.50;99.90;;;;;;4926831;29;20204;-80
2022/09/26 07:29:46;;;;;;;7.60;7.00;;;12.60;99.90;;;;;;4940961;23;20245;-80
2022/09/26 07:32:14;;;;;;;5.40;3.93;;;12.70;99.90;;;;;;4940716;29;20210;-80
2022/09/26 07:34:53;;;;;;;4.50;4.10;;;12.80;99.90;;;;;;4938085;29;20611;-80
2022/09/26 07:37:21;;;;;;;4.50;4.10;;;12.90;99.90;;;;;;4935772;28;20201;-81
2022/09/26 07:39:48;;;;;;;7.23;6.70;;;12.90;99.90;;;;;;4935921;28;20220;-80
2022/09/26 07:42:16;;;;;;;7.77;7.27;;;13.00;99.90;;;;;;4932642;28;20259;-80
2022/09/26 07:44:43;;;;;;;7.80;7.30;;;13.10;99.90;;;;;;4940307;28;20226;-81
2022/09/26 07:50:13;;;;;;;9.97;9.20;;;13.20;99.90;;;;;;4970125;28;20222;-80
2022/09/26 07:52:59;;;;;;;8.33;7.80;;;13.20;99.90;;;;;;4951600;29;20275;-80
2022/09/26 07:55:27;;;;;;;11.20;10.50;;;13.20;99.90;;;;;;4952604;29;20262;-80
2022/09/26 07:58:09;;;;;;;9.83;9.10;;;13.30;99.90;;;;;;4948281;28;20693;-81
2022/09/26 08:01:00;;;;;;;9.00;8.40;;;13.30;99.90;;;;;;4945795;28;20316;-81
2022/09/26 08:03:47;;;;;;;10.13;9.53;;;13.30;99.90;;;;;;4953774;28;20210;-80
2022/09/26 08:06:31;;;;;;;10.30;9.57;;;13.40;99.90;;;;;;4943012;29;20290;-80
2022/09/26 08:08:58;;;;;;;10.77;10.07;;;13.50;99.90;;;;;;4935049;29;20273;-80
2022/09/26 08:11:44;;;;;;;9.70;9.00;;;13.60;99.90;;;;;;4943001;29;20255;-82
2022/09/26 08:14:30;;;;;;;9.63;9.10;;;13.90;99.90;;;;;;4927349;29;20208;-82
2022/09/26 08:17:04;;;;;;;10.40;9.80;;;14.10;99.90;;;;;;4950038;29;20209;-80
2022/09/26 08:19:31;;;;;;;10.30;9.53;;;14.30;99.90;;;;;;4940799;29;20607;-80
2022/09/26 08:21:59;;;;;;;10.67;10.07;;;14.50;99.90;;;;;;4968965;28;20203;-80
2022/09/26 08:24:26;;;;;;;11.10;10.50;;;14.70;99.90;;;;;;4934223;29;20202;-81
2022/09/26 08:26:55;;;;;;;3.23;3.00;;;15.10;99.90;;;;;;4955240;28;20206;-80
2022/09/26 08:29:33;;;;;;;10.00;9.30;;;15.70;99.90;;;;;;4934987;29;20220;-81
2022/09/26 08:32:02;;;;;;;11.83;11.13;;;16.30;99.90;;;;;;4936376;28;20230;-81
2022/09/26 08:34:34;;;;;;;9.83;9.03;;;16.80;99.90;;;;;;4941182;29;20248;-81
2022/09/26 08:37:26;;;;;;;7.00;6.60;;;17.20;99.90;;;;;;4916740;29;20258;-81
2022/09/26 08:40:12;;;;;;;5.03;4.53;;;17.50;99.90;;;;;;4961405;28;20606;-81
2022/09/26 08:43:06;;;;;;;6.57;6.07;;;18.10;99.90;;;;;;4953462;28;20599;-81
2022/09/26 08:46:36;;;;;;;11.13;10.33;;;18.20;99.90;;;;;;4922979;29;20328;-81
2022/09/26 08:49:41;;;;;;;3.87;3.00;;;18.50;99.90;;;;;;4939011;29;20421;-81
2022/09/26 08:52:21;;;;;;;9.77;9.13;;;18.60;99.90;;;;;;4941083;29;20204;-81
2022/09/26 08:54:52;;;;;;;3.63;3.33;;;18.90;99.90;;;;;;4940759;29;20207;-81
2022/09/26 08:57:30;;;;;;;6.30;5.80;;;19.00;99.90;;;;;;4933414;28;20712;-81
2022/09/26 08:59:57;;;;;;;9.63;9.00;;;19.00;99.90;;;;;;4935141;29;20214;-81
2022/09/26 09:02:31;;;;;;;10.00;9.20;;;19.00;99.90;;;;;;4956169;28;20286;-81
2022/09/26 09:05:06;;;;;;;10.57;9.77;;;19.10;99.90;;;;;;4942214;28;20289;-81
2022/09/26 09:07:38;;;;;;;10.33;9.63;;;19.40;99.90;;;;;;4932377;29;20217;-81
2022/09/26 09:10:15;;;;;;;9.90;9.30;;;19.60;99.90;;;;;;4928858;29;20221;-81
2022/09/26 09:12:58;;;;;;;11.00;10.00;;;20.00;99.90;;;;;;4922819;29;20209;-81
2022/09/26 09:16:18;;;;;;;10.77;10.07;;;19.90;99.90;;;;;;4875225;29;20291;-81
2022/09/26 09:19:19;;;;;;;9.13;8.47;;;20.20;99.90;;;;;;4857882;29;20226;-81
2022/09/26 09:22:18;;;;;;;11.50;10.70;;;20.00;99.90;;;;;;4931320;29;20198;-81
2022/09/26 09:25:15;;;;;;;11.10;10.10;;;19.80;99.90;;;;;;4933734;29;20579;-81
2022/09/26 09:27:59;;;;;;;10.70;9.97;;;19.90;99.90;;;;;;4968235;28;20196;-81
2022/09/26 09:30:32;;;;;;;11.17;10.47;;;19.90;99.90;;;;;;4932735;29;20225;-81
2022/09/26 09:33:17;;;;;;;11.43;10.63;;;20.10;99.90;;;;;;4956411;28;20261;-84
2022/09/26 09:36:08;;;;;;;3.03;2.80;;;20.30;99.90;;;;;;4952803;28;20206;-79
2022/09/26 09:38:45;;;;;;;4.27;3.07;;;20.50;99.90;;;;;;4932223;29;20212;-83
2022/09/26 09:41:27;;;;;;;10.40;9.70;;;20.60;99.90;;;;;;4941620;28;20226;-83
2022/09/26 09:43:56;;;;;;;10.10;9.40;;;20.70;99.90;;;;;;4935576;29;20591;-83
2022/09/26 09:46:27;;;;;;;10.60;9.80;;;20.40;99.90;;;;;;4957549;28;20203;-84
2022/09/26 09:49:00;;;;;;;9.87;9.17;;;19.70;99.90;;;;;;4940528;29;20724;-83
2022/09/26 09:51:34;;;;;;;10.13;9.43;;;18.90;99.90;;;;;;4929064;29;20222;-82
2022/09/26 09:54:21;;;;;;;10.10;9.50;;;18.50;99.90;;;;;;4958600;28;20729;-82
2022/09/26 09:56:58;;;;;;;11.00;10.20;;;18.10;99.90;;;;;;4934851;28;20219;-82
2022/09/26 09:59:43;;;;;;;5.23;4.83;;;17.80;99.90;;;;;;4953113;28;20191;-81
2022/09/26 10:02:20;;;;;;;3.17;2.70;;;17.70;99.90;;;;;;4946011;28;20204;-83
2022/09/26 10:04:56;;;;;;;3.67;2.73;;;17.90;99.90;;;;;;4945328;29;20190;-83
2022/09/26 10:07:22;;;;;;;3.07;2.60;;;18.20;99.90;;;;;;4940420;29;20712;-83
2022/09/26 10:10:12;;;;;;;4.73;3.17;;;18.50;99.90;;;;;;4964631;28;20254;-83
2022/09/26 10:13:21;;;;;;;3.20;2.80;;;18.70;99.90;;;;;;4897790;29;20212;-82
2022/09/26 10:16:20;;;;;;;5.40;5.10;;;19.00;99.90;;;;;;4886533;29;20204;-83
2022/09/26 10:19:00;;;;;;;3.17;2.67;;;18.80;99.90;;;;;;4930094;29;20291;-83
2022/09/26 10:21:32;;;;;;;3.07;2.70;;;18.50;99.90;;;;;;4944064;28;20284;-82
2022/09/26 10:24:02;;;;;;;2.93;2.73;;;18.20;99.90;;;;;;4941425;29;20677;-83
2022/09/26 10:26:50;;;;;;;3.03;2.83;;;17.90;99.90;;;;;;4950603;29;20649;-83
2022/09/26 10:29:33;;;;;;;2.90;2.70;;;17.70;99.90;;;;;;4939520;28;20212;-83
2022/09/26 10:32:01;;;;;;;3.63;2.50;;;17.60;99.90;;;;;;4939454;29;20747;-83
2022/09/26 10:34:31;;;;;;;3.17;2.60;;;17.70;99.90;;;;;;4933585;29;20256;-83
2022/09/26 10:37:20;;;;;;;2.80;2.60;;;17.90;99.90;;;;;;4940495;29;20206;-83
2022/09/26 10:42:37;;;;;;;10.13;9.23;;;18.20;99.90;;;;;;4939464;29;20290;-83
2022/09/26 10:45:16;;;;;;;9.47;8.87;;;18.10;99.90;;;;;;4937649;28;20195;-82
2022/09/26 10:48:26;;;;;;;2.90;2.70;;;18.30;99.90;;;;;;4897391;29;20308;-83
2022/09/26 10:51:17;;;;;;;2.73;2.53;;;18.80;99.90;;;;;;4893243;29;20258;-83
2022/09/26 10:53:56;;;;;;;3.10;2.73;;;18.70;99.90;;;;;;4937580;28;20200;-83
2022/09/26 10:56:26;;;;;;;3.23;2.70;;;18.60;99.90;;;;;;4942166;28;20295;-83
2022/09/26 10:58:58;;;;;;;2.77;2.57;;;18.60;99.90;;;;;;4933878;28;20206;-82
2022/09/26 11:01:31;;;;;;;3.10;2.47;;;18.60;99.90;;;;;;4931354;29;20242;-83
2022/09/26 11:04:11;;;;;;;3.10;2.30;;;18.40;99.90;;;;;;4936176;28;20200;-82
2022/09/26 11:06:56;;;;;;;2.50;2.30;;;18.20;99.90;;;;;;4958934;28;20201;-83
2022/09/26 11:09:29;;;;;;;5.33;2.80;;;18.20;99.90;;;;;;4935922;28;20219;-79
2022/09/26 11:12:25;;;;;;;2.50;2.30;;;18.20;99.90;;;;;;4940161;28;20702;-80
2022/09/26 11:14:55;;;;;;;2.70;2.50;;;18.30;99.90;;;;;;4939732;29;20203;-79
2022/09/26 11:17:42;;;;;;;2.60;2.40;;;18.30;99.90;;;;;;4936249;28;20209;-82
2022/09/26 11:20:13;;;;;;;2.77;2.57;;;18.20;99.90;;;;;;4936875;28;20219;-83
2022/09/26 11:22:44;;;;;;;2.50;2.30;;;18.20;99.90;;;;;;4927769;29;20206;-82
2022/09/26 11:25:15;;;;;;;2.87;2.50;;;18.30;99.90;;;;;;4951289;29;20204;-82
2022/09/26 11:27:48;;;;;;;2.50;2.30;;;18.50;99.90;;;;;;4924736;28;20310;-83
2022/09/26 11:30:25;;;;;;;2.43;2.30;;;18.90;99.90;;;;;;4928943;29;20231;-83
2022/09/26 11:33:07;;;;;;;2.53;2.23;;;19.00;99.90;;;;;;4942317;28;20208;-82
2022/09/26 11:36:09;;;;;;;3.33;2.87;;;19.30;99.90;;;;;;4956829;28;20681;-83
2022/09/26 11:38:41;;;;;;;2.37;2.10;;;19.40;99.90;;;;;;4943567;29;20247;-83
2022/09/26 11:41:43;;;;;;;2.43;2.30;;;19.30;99.90;;;;;;4929732;29;20220;-83
2022/09/26 11:44:35;;;;;;;8.40;7.63;;;19.00;99.90;;;;;;4921243;28;20220;-83
2022/09/26 11:47:45;;;;;;;4.20;3.80;;;18.60;99.90;;;;;;4952163;28;20222;-82
2022/09/26 11:50:38;;;;;;;2.27;2.17;;;18.30;99.90;;;;;;4931799;28;20294;-83
2022/09/26 11:53:38;;;;;;;3.27;2.47;;;18.30;99.90;;;;;;4939100;29;20205;-82
2022/09/26 11:56:26;;;;;;;3.17;2.97;;;18.30;99.90;;;;;;4945368;28;20199;-82
2022/09/26 11:59:03;;;;;;;2.47;2.27;;;18.30;99.90;;;;;;4958018;28;20194;-83
2022/09/26 12:01:42;;;;;;;4.33;4.03;;;18.10;99.90;;;;;;4935141;29;20229;-84
2022/09/26 12:04:25;;;;;;;3.97;2.37;;;17.90;99.90;;;;;;4945255;28;20263;-83
2022/09/26 12:07:03;;;;;;;2.63;2.43;;;17.70;99.90;;;;;;4956446;28;20309;-82
2022/09/26 12:09:49;;;;;;;8.20;7.70;;;17.50;99.90;;;;;;4953019;28;20204;-82
2022/09/26 12:12:20;;;;;;;2.53;2.40;;;17.50;99.90;;;;;;4936570;28;20194;-82
2022/09/26 12:15:08;;;;;;;10.57;9.67;;;17.60;99.90;;;;;;4935243;28;20215;-82
2022/09/26 12:17:48;;;;;;;2.93;2.30;;;17.60;99.90;;;;;;4934807;29;20206;-82
2022/09/26 12:20:26;;;;;;;2.03;1.93;;;17.80;99.90;;;;;;4933866;28;20249;-83
2022/09/26 12:23:00;;;;;;;7.00;6.50;;;18.00;99.90;;;;;;4934473;28;20201;-83
2022/09/26 12:25:42;;;;;;;3.03;2.83;;;18.00;99.90;;;;;;4948442;28;20242;-83
2022/09/26 12:28:25;;;;;;;3.03;2.53;;;17.90;99.90;;;;;;4932172;28;20203;-82
2022/09/26 12:31:04;;;;;;;8.43;7.90;;;17.90;99.90;;;;;;4938426;28;20220;-83
2022/09/26 12:33:46;;;;;;;8.57;8.07;;;17.70;99.90;;;;;;4930578;28;20211;-82
2022/09/26 12:36:24;;;;;;;7.90;7.50;;;17.40;99.90;;;;;;4931661;29;20266;-82
2022/09/26 12:39:08;;;;;;;8.30;7.70;;;17.30;99.90;;;;;;4932950;29;20198;-82
2022/09/26 12:41:52;;;;;;;10.17;9.57;;;17.20;99.90;;;;;;4954941;28;20287;-82
2022/09/26 12:44:46;;;;;;;8.23;7.80;;;17.30;99.90;;;;;;4958022;28;20253;-82
2022/09/26 12:47:23;;;;;;;8.50;8.00;;;17.40;99.90;;;;;;4933671;29;20199;-82
2022/09/26 12:50:15;;;;;;;7.80;7.30;;;17.40;99.90;;;;;;4933799;29;20215;-82
2022/09/26 12:53:09;;;;;;;8.50;7.80;;;17.40;99.90;;;;;;4968643;28;20298;-82
2022/09/26 12:55:45;;;;;;;8.00;7.50;;;17.30;99.90;;;;;;4953645;28;20199;-83
2022/09/26 12:58:28;;;;;;;8.50;8.00;;;17.10;99.90;;;;;;4940684;29;20552;-80
2022/09/26 13:01:06;;;;;;;8.60;8.10;;;16.80;99.90;;;;;;4940324;28;20225;-82
2022/09/26 13:03:55;;;;;;;8.70;8.10;;;16.40;99.90;;;;;;4930696;29;20206;-80
2022/09/26 13:06:40;;;;;;;8.63;8.13;;;16.00;99.90;;;;;;4946348;28;20210;-82
2022/09/26 13:09:22;;;;;;;8.50;8.00;;;15.50;99.90;;;;;;4940628;29;20208;-82
2022/09/26 13:12:00;;;;;;;8.67;8.07;;;15.20;99.90;;;;;;4956114;28;20224;-79
2022/09/26 13:14:56;;;;;;;8.63;8.07;;;15.00;99.90;;;;;;4929157;29;20289;-81
2022/09/26 13:17:28;;;;;;;8.50;8.00;;;14.90;99.90;;;;;;4934683;28;20212;-82
2022/09/26 13:20:00;;;;;;;8.30;7.80;;;14.90;99.90;;;;;;4951041;28;20289;-82
2022/09/26 13:22:34;;;;;;;8.30;7.70;;;14.90;99.90;;;;;;4957242;28;20694;-82
2022/09/26 13:25:17;;;;;;;8.03;7.60;;;15.00;99.90;;;;;;4931165;29;20649;-82
2022/09/26 13:27:53;;;;;;;8.53;7.93;;;14.90;99.90;;;;;;4934656;29;20200;-82
2022/09/26 13:30:24;;;;;;;8.10;7.60;;;14.90;99.90;;;;;;4955361;28;20226;-82
2022/09/26 13:32:57;;;;;;;7.63;7.20;;;15.00;99.90;;;;;;4936707;29;20264;-83